GEN0015 SAWH-SCGZ
Flight info
| Callsign | GEN0015 |
|---|---|
| Flight time | 0h 10m |
| Altitude | 5000 |
| Route | USU2A D093N DCT PWL |
| Aircraft | C208/L-SDFGR/C |
Departure
| Time | 2026-05-06 17:42 |
|---|---|
| Airport | Ushuaia - Malvinas Argentinas International Airport (SAWH) |
Arrival
| Time | 2026-05-06 17:52 |
|---|---|
| Airport | Guardia Marina Zañartu Airport (SCGZ) |
| Time | Latitude | Longitude | Altitude | Speed | Heading |
|---|---|---|---|---|---|
| 2026-05-06 17:27 | -54.84132 | -68.30462 | 86 ft | 0 kts | 180° |
| 2026-05-06 17:34 | -54.84133 | -68.30462 | 86 ft | 0 kts | 180° |
| 2026-05-06 17:37 | -54.84150 | -68.30507 | 92 ft | 12 kts | 267° |
| 2026-05-06 17:37 | -54.84145 | -68.30624 | 87 ft | 5 kts | 266° |
| 2026-05-06 17:38 | -54.84169 | -68.30669 | 87 ft | 7 kts | 183° |
| 2026-05-06 17:38 | -54.84213 | -68.30710 | 87 ft | 8 kts | 264° |
| 2026-05-06 17:38 | -54.84216 | -68.30815 | 87 ft | 9 kts | 266° |
| 2026-05-06 17:38 | -54.84220 | -68.30926 | 88 ft | 4 kts | 266° |
| 2026-05-06 17:39 | -54.84237 | -68.30971 | 92 ft | 9 kts | 195° |
| 2026-05-06 17:39 | -54.84270 | -68.30969 | 88 ft | 0 kts | 170° |
| 2026-05-06 17:40 | -54.84347 | -68.30952 | 90 ft | 4 kts | 175° |
| 2026-05-06 17:40 | -54.84382 | -68.30879 | 90 ft | 0 kts | 85° |
| 2026-05-06 17:41 | -54.84381 | -68.30856 | 89 ft | 19 kts | 83° |
| 2026-05-06 17:41 | -54.84351 | -68.30049 | 112 ft | 101 kts | 86° |
| 2026-05-06 17:42 | -54.84309 | -68.28743 | 382 ft | 115 kts | 85° |
| 2026-05-06 17:42 | -54.84239 | -68.27371 | 808 ft | 114 kts | 83° |
| 2026-05-06 17:42 | -54.84156 | -68.26009 | 1265 ft | 113 kts | 83° |
| 2026-05-06 17:42 | -54.84066 | -68.24615 | 1569 ft | 128 kts | 82° |
| 2026-05-06 17:43 | -54.84166 | -68.22984 | 1579 ft | 147 kts | 107° |
| 2026-05-06 17:43 | -54.84477 | -68.21262 | 1575 ft | 149 kts | 106° |
| 2026-05-06 17:43 | -54.84773 | -68.19556 | 1574 ft | 147 kts | 106° |
| 2026-05-06 17:43 | -54.85065 | -68.17865 | 1572 ft | 146 kts | 106° |
| 2026-05-06 17:44 | -54.85353 | -68.16185 | 1570 ft | 145 kts | 106° |
| 2026-05-06 17:44 | -54.85638 | -68.14513 | 1567 ft | 144 kts | 106° |
| 2026-05-06 17:44 | -54.85927 | -68.12842 | 1569 ft | 144 kts | 106° |
| 2026-05-06 17:44 | -54.86213 | -68.11177 | 1568 ft | 144 kts | 106° |
| 2026-05-06 17:45 | -54.86500 | -68.09509 | 1572 ft | 144 kts | 106° |
| 2026-05-06 17:45 | -54.86787 | -68.07841 | 1567 ft | 144 kts | 106° |
| 2026-05-06 17:45 | -54.87076 | -68.06172 | 1571 ft | 144 kts | 106° |
| 2026-05-06 17:45 | -54.87365 | -68.04501 | 1570 ft | 144 kts | 106° |
| 2026-05-06 17:46 | -54.87652 | -68.02835 | 1570 ft | 144 kts | 106° |
| 2026-05-06 17:46 | -54.87930 | -68.01159 | 1572 ft | 144 kts | 105° |
| 2026-05-06 17:46 | -54.88202 | -67.99478 | 1573 ft | 145 kts | 105° |
| 2026-05-06 17:46 | -54.88475 | -67.97800 | 1570 ft | 144 kts | 105° |
| 2026-05-06 17:47 | -54.88746 | -67.96134 | 1509 ft | 148 kts | 105° |
| 2026-05-06 17:47 | -54.89031 | -67.94398 | 1284 ft | 141 kts | 105° |
| 2026-05-06 17:47 | -54.89290 | -67.92826 | 863 ft | 135 kts | 105° |
| 2026-05-06 17:47 | -54.89543 | -67.91254 | 477 ft | 130 kts | 105° |
| 2026-05-06 17:48 | -54.89781 | -67.89703 | 482 ft | 142 kts | 104° |
| 2026-05-06 17:48 | -54.90055 | -67.87969 | 482 ft | 151 kts | 105° |
| 2026-05-06 17:48 | -54.90334 | -67.86225 | 483 ft | 150 kts | 105° |
| 2026-05-06 17:48 | -54.90613 | -67.84485 | 483 ft | 149 kts | 105° |
| 2026-05-06 17:49 | -54.90865 | -67.82908 | 479 ft | 149 kts | 105° |
| 2026-05-06 17:49 | -54.91141 | -67.81173 | 483 ft | 149 kts | 104° |
| 2026-05-06 17:49 | -54.91416 | -67.79432 | 482 ft | 150 kts | 105° |
| 2026-05-06 17:49 | -54.91692 | -67.77688 | 482 ft | 150 kts | 105° |
| 2026-05-06 17:50 | -54.91968 | -67.75944 | 482 ft | 149 kts | 105° |
| 2026-05-06 17:50 | -54.92243 | -67.74201 | 478 ft | 149 kts | 105° |
| 2026-05-06 17:50 | -54.92518 | -67.72457 | 479 ft | 149 kts | 104° |
| 2026-05-06 17:50 | -54.92792 | -67.70716 | 479 ft | 149 kts | 105° |
| 2026-05-06 17:51 | -54.92906 | -67.68962 | 465 ft | 148 kts | 88° |
| 2026-05-06 17:51 | -54.92999 | -67.67257 | 462 ft | 118 kts | 100° |
| 2026-05-06 17:51 | -54.93087 | -67.66035 | 426 ft | 104 kts | 89° |
| 2026-05-06 17:51 | -54.93088 | -67.64696 | 279 ft | 114 kts | 89° |
| 2026-05-06 17:52 | -54.93098 | -67.63475 | 153 ft | 84 kts | 90° |
| 2026-05-06 17:52 | -54.93101 | -67.62983 | 140 ft | 18 kts | 88° |
| 2026-05-06 17:52 | -54.93102 | -67.62703 | 129 ft | 25 kts | 89° |
| 2026-05-06 17:52 | -54.93103 | -67.62407 | 123 ft | 24 kts | 88° |
| 2026-05-06 17:53 | -54.93105 | -67.62129 | 118 ft | 22 kts | 92° |
| 2026-05-06 17:53 | -54.93063 | -67.62032 | 120 ft | 12 kts | 352° |
| 2026-05-06 17:53 | -54.93057 | -67.62033 | 120 ft | 0 kts | 351° |